Morro do Chapeu, Brazil
Current Conditions -  °F | °C
As of 5:00 PM on Friday 19 Dec 2014 (Local Time) from SBLE Reporting Station
Scattered Clouds Scattered Clouds  
Wind Chill: 79°   Ceiling: Unl
Heat Index: 82°   Visibility: 6mi
Dew Point: 72°   Wind: 3mph
Humidity: 78%   Direction: 250°WSW
Pressure: 29.91"   Gusts: NA
Location:  11.55°S, 41.16°W
Report Text: SBLE 192000Z 25003KT 9999 SCT040 26/22 Q1013
Loading
Personal Weather Stations






























Interactive Weather Map New forecast layout! Learn more

10-Day Weather Forecast

Advertisements
Track Severe Weather on mobile